EST,Max TemperatureF,Mean TemperatureF,Min TemperatureF,Max Dew PointF,MeanDew PointF,Min DewpointF,Max Humidity, Mean Humidity, Min Humidity, Max Sea Level PressureIn, Mean Sea Level PressureIn, Min Sea Level PressureIn, Max VisibilityMiles, Mean VisibilityMiles, Min VisibilityMiles, Max Wind SpeedMPH, Mean Wind SpeedMPH, Max Gust SpeedMPH,PrecipitationIn, CloudCover, Events, WindDirDegrees
2011-11-1,55,43,30,36,32,29,92,66,38,30.36,30.32,30.30,10,10,7,7,0,10,0.00,0,,60
2011-11-2,58,43,27,36,30,25,92,77,40,30.42,30.34,30.23,10,8,4,8,1,12,0.00,0,,200
2011-11-3,61,46,30,42,35,29,100,81,46,30.22,30.06,29.91,10,7,2,12,2,16,0.00,0,,205
2011-11-4,51,43,35,40,29,20,92,59,32,30.29,30.08,29.90,10,9,5,23,10,35,0.00,1,,12
2011-11-5,51,38,25,26,25,21,92,65,33,30.48,30.42,30.30,10,10,10,12,1,15,0.00,0,,6
2011-11-6,56,40,23,32,27,21,92,69,32,30.54,30.45,30.36,10,10,8,15,3,18,0.00,0,,225
2011-11-7,64,46,28,41,36,26,92,73,37,30.35,30.28,30.21,10,10,8,8,1,12,0.00,0,,250
2011-11-8,70,54,38,50,43,36,100,76,47,30.29,30.22,30.17,10,10,6,8,1,10,0.00,0,,191
2011-11-9,69,54,38,52,43,36,100,79,34,30.19,30.12,30.00,10,7,1,13,3,16,0.00,1,,184
2011-11-10,68,56,43,54,48,39,93,79,52,30.00,29.82,29.65,10,8,4,16,5,22,0.05,7,Rain,347
2011-11-11,48,44,39,39,30,24,92,64,42,29.96,29.71,29.59,10,10,3,23,11,32,0.02,2,Rain,273
2011-11-12,56,46,35,32,28,24,82,57,32,30.10,30.04,29.98,10,10,10,16,6,23,0.00,0,,217
2011-11-13,58,44,30,41,35,28,92,71,43,30.12,30.02,29.93,10,10,9,14,2,23,0.00,1,,196
2011-11-14,66,52,38,51,42,34,86,67,50,29.90,29.82,29.67,10,10,10,15,3,20,T,4,,204
2011-11-15,64,57,50,54,51,49,93,77,63,29.94,29.82,29.70,10,10,10,14,3,20,T,7,Rain,242
2011-11-16,59,52,45,54,50,44,100,94,80,29.94,29.81,29.72,10,3,0,6,1,7,0.66,7,Fog-Rain,348
2011-11-17,53,45,36,52,31,18,93,61,38,30.00,29.86,29.76,10,10,6,16,6,22,T,6,,323
2011-11-18,46,37,27,24,21,18,85,56,34,30.40,30.29,30.02,10,10,10,15,6,21,0.00,0,,254
2011-11-19,53,39,25,31,25,22,92,62,28,30.40,30.32,30.22,10,10,10,13,2,17,0.00,1,,212
2011-11-20,68,51,34,47,41,30,89,67,45,30.19,30.08,30.01,10,10,10,14,4,18,0.00,2,,243
2011-11-21,53,42,30,49,32,24,77,62,46,30.33,30.26,30.12,10,10,6,18,6,23,0.01,3,Rain,11
2011-11-22,44,37,30,41,32,25,96,86,64,30.41,30.29,29.99,10,5,1,7,3,12,0.73,8,Rain,357
2011-11-23,45,41,37,43,37,32,100,86,79,30.01,29.77,29.62,10,8,3,22,8,32,1.13,8,Rain,3
2011-11-24,53,40,27,36,30,25,92,83,50,30.17,30.13,30.03,10,8,2,7,0,8,0.00,0,,-1
2011-11-25,62,46,29,37,34,27,92,68,36,30.15,30.11,30.05,10,9,2,13,3,17,0.00,0,,199
2011-11-26,63,48,33,39,34,30,89,66,34,30.20,30.16,30.11,10,10,10,10,2,14,0.00,0,,209
2011-11-27,60,45,29,48,38,29,92,77,51,30.16,30.11,30.07,10,10,6,8,1,13,0.00,0,,176
2011-11-28,65,55,45,50,48,43,93,80,56,30.12,30.08,30.06,10,10,8,13,2,18,0.00,0,,167
2011-11-29,66,55,44,61,55,43,93,89,78,30.07,29.85,29.59,10,8,2,17,6,31,0.33,8,Rain,145
2011-11-30,56,48,39,54,37,27,93,67,50,29.94,29.68,29.58,10,10,9,21,9,28,0.01,7,Rain,223